createdAt,value
2023-04-18T00:02:23.332Z,36.42
2023-04-18T00:04:50.561Z,36.53
2023-04-18T00:07:17.927Z,36.31
2023-04-18T00:09:44.660Z,36.65
2023-04-18T00:12:11.432Z,36.85
2023-04-18T00:14:38.173Z,36.59
2023-04-18T00:17:08.846Z,36.31
2023-04-18T00:19:37.219Z,36.00
2023-04-18T00:22:03.713Z,36.06
2023-04-18T00:24:30.168Z,36.05
2023-04-18T00:26:57.150Z,36.04
2023-04-18T00:29:23.665Z,35.94
2023-04-18T00:31:52.577Z,35.41
2023-04-18T00:34:19.105Z,36.01
2023-04-18T00:36:45.629Z,35.95
2023-04-18T00:39:12.141Z,36.01
2023-04-18T00:41:38.734Z,35.90
2023-04-18T00:44:05.345Z,35.92
2023-04-18T00:46:32.072Z,35.88
2023-04-18T00:48:58.696Z,35.88
2023-04-18T00:51:25.693Z,36.14
2023-04-18T00:53:52.222Z,35.83
2023-04-18T00:56:18.906Z,35.92
2023-04-18T00:58:45.536Z,35.90
2023-04-18T01:01:13.402Z,35.65
2023-04-18T01:03:40.871Z,35.67
2023-04-18T01:06:07.793Z,35.65
2023-04-18T01:08:34.624Z,35.88
2023-04-18T01:11:01.163Z,35.94
2023-04-18T01:13:27.721Z,35.46
2023-04-18T01:15:55.778Z,35.75
2023-04-18T01:18:22.575Z,35.63
2023-04-18T01:20:51.242Z,35.92
2023-04-18T01:23:19.793Z,35.71
2023-04-18T01:25:47.003Z,35.77
2023-04-18T01:28:14.532Z,35.89
2023-04-18T01:30:41.377Z,36.00
2023-04-18T01:33:07.922Z,35.87
2023-04-18T01:35:34.467Z,35.93
2023-04-18T01:38:01.320Z,35.81
2023-04-18T01:40:28.205Z,36.03
2023-04-18T01:42:54.716Z,35.73
2023-04-18T01:45:22.335Z,36.01
2023-04-18T01:47:48.991Z,35.81
2023-04-18T01:50:15.753Z,35.95
2023-04-18T01:52:42.959Z,35.92
2023-04-18T01:55:09.922Z,35.94
2023-04-18T01:57:39.591Z,35.96
2023-04-18T02:00:07.685Z,35.81
2023-04-18T02:02:43.537Z,35.85
2023-04-18T02:05:10.176Z,35.83
2023-04-18T02:07:38.820Z,36.08
2023-04-18T02:10:05.772Z,35.74
2023-04-18T02:12:32.492Z,36.06
2023-04-18T02:14:59.586Z,35.93
2023-04-18T02:17:26.143Z,36.02
2023-04-18T02:19:54.388Z,36.33
2023-04-18T02:22:20.890Z,36.04
2023-04-18T02:24:47.376Z,35.97
2023-04-18T02:27:15.066Z,35.99
2023-04-18T02:29:41.604Z,36.05
2023-04-18T02:32:09.069Z,35.93
2023-04-18T02:34:36.438Z,36.14
2023-04-18T02:37:03.111Z,35.70
2023-04-18T02:39:29.603Z,35.75
2023-04-18T02:41:56.075Z,35.73
2023-04-18T02:44:24.459Z,35.85
2023-04-18T02:46:51.030Z,35.79
2023-04-18T02:49:17.637Z,35.84
2023-04-18T02:51:44.651Z,35.59
2023-04-18T02:54:11.456Z,35.69
2023-04-18T02:56:53.286Z,35.54
2023-04-18T02:59:24.189Z,36.05
2023-04-18T03:02:06.201Z,35.87
2023-04-18T03:04:34.369Z,35.60
2023-04-18T03:07:03.643Z,36.16
2023-04-18T03:09:35.060Z,35.76
2023-04-18T03:12:07.009Z,35.92
2023-04-18T03:14:35.438Z,35.99
2023-04-18T03:17:02.325Z,35.86
2023-04-18T03:19:35.190Z,35.70
2023-04-18T03:22:06.101Z,35.86
2023-04-18T03:24:34.130Z,35.54
2023-04-18T03:27:02.841Z,36.04
2023-04-18T03:29:29.655Z,35.98
2023-04-18T03:31:56.296Z,36.30
2023-04-18T03:34:22.847Z,36.05
2023-04-18T03:36:49.555Z,35.76
2023-04-18T03:39:16.827Z,36.00
2023-04-18T03:41:43.547Z,35.89
2023-04-18T03:44:10.354Z,35.88
2023-04-18T03:46:39.575Z,35.67
2023-04-18T03:49:06.632Z,35.77
2023-04-18T03:51:41.224Z,36.15
2023-04-18T03:54:07.844Z,36.24
2023-04-18T03:56:34.404Z,36.02
2023-04-18T03:59:00.913Z,36.05
2023-04-18T04:01:27.448Z,35.74
2023-04-18T04:03:54.403Z,35.66
2023-04-18T04:06:21.672Z,35.79
2023-04-18T04:08:48.184Z,35.65
2023-04-18T04:11:21.181Z,35.56
2023-04-18T04:13:47.977Z,35.59
2023-04-18T04:16:17.483Z,35.54
2023-04-18T04:19:04.807Z,35.57
2023-04-18T04:21:37.765Z,35.97
2023-04-18T04:24:10.018Z,35.46
2023-04-18T04:26:44.310Z,35.23
2023-04-18T04:29:25.577Z,35.13
2023-04-18T04:32:09.747Z,35.43
2023-04-18T04:34:38.349Z,35.34
2023-04-18T04:37:08.284Z,35.25
2023-04-18T04:39:47.309Z,35.29
2023-04-18T04:42:33.278Z,34.75
2023-04-18T04:45:09.466Z,34.79
2023-04-18T04:47:37.073Z,35.04
2023-04-18T04:50:04.612Z,34.91
2023-04-18T04:52:32.633Z,34.75
2023-04-18T04:54:59.221Z,34.80
2023-04-18T04:57:26.321Z,34.93
2023-04-18T04:59:53.048Z,34.43
2023-04-18T05:02:23.240Z,35.15
2023-04-18T05:04:49.982Z,35.15
2023-04-18T05:07:16.449Z,35.37
2023-04-18T05:09:43.255Z,34.98
2023-04-18T05:12:09.731Z,34.74
2023-04-18T05:14:36.287Z,34.83
2023-04-18T05:17:04.213Z,35.17
2023-04-18T05:19:30.880Z,34.84
2023-04-18T05:21:57.463Z,35.11
2023-04-18T05:24:24.057Z,35.47
2023-04-18T05:26:50.631Z,35.39
2023-04-18T05:29:17.253Z,35.19
2023-04-18T05:31:43.748Z,35.02
2023-04-18T05:34:10.249Z,34.81
2023-04-18T05:36:36.993Z,34.67
2023-04-18T05:39:04.134Z,34.54
2023-04-18T05:41:30.623Z,34.25
2023-04-18T05:44:04.676Z,34.39
2023-04-18T05:46:32.903Z,34.68
2023-04-18T05:48:59.534Z,34.26
2023-04-18T05:51:26.739Z,33.91
2023-04-18T05:53:53.254Z,33.42
2023-04-18T05:56:19.804Z,33.67
2023-04-18T05:58:47.555Z,33.88
2023-04-18T06:01:18.624Z,33.99
2023-04-18T06:03:45.355Z,32.00
2023-04-18T06:06:12.061Z,32.76
2023-04-18T06:08:39.188Z,32.02
2023-04-18T06:11:05.949Z,31.63
2023-04-18T06:13:32.582Z,31.76
2023-04-18T06:16:00.890Z,31.47
2023-04-18T06:18:27.425Z,31.88
2023-04-18T06:20:54.629Z,32.13
2023-04-18T06:23:21.124Z,32.54
2023-04-18T06:25:47.609Z,32.96
2023-04-18T06:28:14.133Z,32.84
2023-04-18T06:30:40.784Z,32.47
2023-04-18T06:33:10.452Z,32.62
2023-04-18T06:35:37.305Z,32.58
2023-04-18T06:38:10.977Z,32.53
2023-04-18T06:40:37.515Z,32.75
2023-04-18T06:43:04.150Z,32.54
2023-04-18T06:45:31.482Z,33.01
2023-04-18T06:47:59.788Z,32.98
2023-04-18T06:50:26.938Z,32.78
2023-04-18T06:52:53.470Z,32.63
2023-04-18T06:55:20.076Z,32.21
2023-04-18T06:57:46.727Z,32.48
2023-04-18T07:00:14.387Z,32.25
2023-04-18T07:02:41.773Z,32.35
2023-04-18T07:05:09.284Z,32.31
2023-04-18T07:07:36.547Z,32.37
2023-04-18T07:10:03.110Z,32.06
2023-04-18T07:12:29.660Z,32.07
2023-04-18T07:14:56.269Z,32.06
2023-04-18T07:17:22.989Z,31.17
2023-04-18T07:19:49.628Z,31.06
2023-04-18T07:22:16.332Z,30.04
2023-04-18T07:24:44.169Z,29.53
2023-04-18T07:27:10.815Z,29.22
2023-04-18T07:29:37.538Z,28.95
2023-04-18T07:32:05.640Z,29.35
2023-04-18T07:34:35.745Z,28.98
2023-04-18T07:37:02.439Z,28.84
2023-04-18T07:39:28.960Z,28.49
2023-04-18T07:41:55.507Z,27.07
2023-04-18T07:44:21.981Z,24.97
2023-04-18T07:46:48.714Z,23.69
2023-04-18T07:49:15.836Z,23.70
2023-04-18T07:51:42.640Z,23.16
2023-04-18T07:54:11.059Z,22.48
2023-04-18T07:56:37.570Z,21.98
2023-04-18T07:59:04.097Z,21.16
2023-04-18T08:01:31.161Z,21.34
2023-04-18T08:04:01.629Z,20.89
2023-04-18T08:06:29.099Z,19.80
2023-04-18T08:08:57.459Z,19.49
2023-04-18T08:11:24.147Z,20.01
2023-04-18T08:13:50.791Z,20.17
2023-04-18T08:16:17.716Z,21.83
2023-04-18T08:18:44.363Z,22.63
2023-04-18T08:21:10.996Z,23.77
2023-04-18T08:23:37.535Z,25.07
2023-04-18T08:26:04.085Z,25.79
2023-04-18T08:28:30.657Z,26.49
2023-04-18T08:30:57.327Z,27.27
2023-04-18T08:33:24.463Z,27.89
2023-04-18T08:35:51.492Z,28.50
2023-04-18T08:38:18.866Z,28.80
2023-04-18T08:40:45.613Z,29.27
2023-04-18T08:43:14.763Z,29.45
2023-04-18T08:45:44.977Z,29.57
2023-04-18T08:48:15.308Z,29.86
2023-04-18T08:50:42.574Z,30.07
2023-04-18T08:53:09.439Z,30.54
2023-04-18T08:55:36.028Z,30.51
2023-04-18T08:58:04.856Z,31.07
2023-04-18T09:00:31.379Z,31.04
2023-04-18T09:02:58.252Z,31.35
2023-04-18T09:05:26.994Z,31.59
2023-04-18T09:07:56.230Z,31.69
2023-04-18T09:10:28.857Z,31.74
2023-04-18T09:12:56.890Z,30.55
2023-04-18T09:15:27.191Z,29.11
2023-04-18T09:17:56.044Z,28.73
2023-04-18T09:20:43.601Z,28.79
2023-04-18T09:23:14.406Z,29.05
2023-04-18T09:25:46.754Z,28.82
2023-04-18T09:28:27.086Z,28.48
2023-04-18T09:30:54.681Z,28.99
2023-04-18T09:33:32.673Z,28.73
2023-04-18T09:36:18.567Z,28.62
2023-04-18T09:38:45.461Z,29.05
2023-04-18T09:41:13.070Z,29.00
2023-04-18T09:43:40.589Z,28.79
2023-04-18T09:46:08.227Z,28.98
2023-04-18T09:48:35.084Z,28.77
2023-04-18T09:51:06.724Z,28.44
2023-04-18T09:53:35.356Z,28.33
2023-04-18T09:56:02.514Z,28.27
2023-04-18T09:58:30.753Z,27.98
2023-04-18T10:00:57.881Z,27.77
2023-04-18T10:03:28.880Z,27.63
2023-04-18T10:05:57.675Z,26.09
2023-04-18T10:08:24.426Z,27.43
2023-04-18T10:10:50.943Z,27.92
2023-04-18T10:13:18.607Z,27.10
2023-04-18T10:15:45.643Z,27.37
2023-04-18T10:18:18.464Z,27.01
2023-04-18T10:20:46.893Z,27.05
2023-04-18T10:23:31.866Z,26.48
2023-04-18T10:25:59.126Z,27.16
2023-04-18T10:28:27.466Z,26.80
2023-04-18T10:30:56.372Z,26.88
2023-04-18T10:33:32.259Z,26.92
2023-04-18T10:36:03.754Z,26.43
2023-04-18T10:38:31.554Z,26.58
2023-04-18T10:41:26.434Z,26.50
2023-04-18T10:44:08.708Z,26.25
2023-04-18T10:46:51.116Z,26.00
2023-04-18T10:49:30.304Z,26.60
2023-04-18T10:52:00.408Z,26.39
2023-04-18T10:54:43.568Z,26.20
2023-04-18T10:57:11.232Z,26.12
2023-04-18T10:59:38.813Z,26.34
2023-04-18T11:02:29.575Z,26.07
2023-04-18T11:05:01.524Z,26.19
2023-04-18T11:07:38.718Z,26.07
2023-04-18T11:10:06.357Z,26.35
2023-04-18T11:12:35.820Z,26.21
2023-04-18T11:15:04.492Z,26.19
2023-04-18T11:17:40.063Z,25.61
2023-04-18T11:20:14.782Z,25.79
2023-04-18T11:22:51.264Z,26.18
2023-04-18T11:25:23.683Z,26.16
2023-04-18T11:27:51.660Z,25.69
2023-04-18T11:30:18.291Z,25.98
2023-04-18T11:32:44.937Z,26.21
2023-04-18T11:35:13.191Z,26.45
2023-04-18T11:37:40.696Z,26.21
2023-04-18T11:40:10.477Z,26.15
2023-04-18T11:42:39.025Z,26.42
2023-04-18T11:45:15.831Z,25.75
2023-04-18T11:47:43.413Z,26.20
2023-04-18T11:50:11.643Z,26.47
2023-04-18T11:52:41.300Z,26.28
2023-04-18T11:55:13.414Z,26.39
2023-04-18T11:57:40.870Z,26.46
2023-04-18T12:00:09.031Z,26.46
2023-04-18T12:02:43.711Z,26.00
2023-04-18T12:05:12.049Z,26.18
2023-04-18T12:07:43.043Z,25.86
2023-04-18T12:10:24.072Z,26.13
2023-04-18T12:12:52.097Z,25.79
2023-04-18T12:15:19.483Z,26.36
2023-04-18T12:17:51.855Z,26.40
2023-04-18T12:20:18.477Z,25.93
2023-04-18T12:22:46.009Z,25.33
2023-04-18T12:25:22.814Z,25.70
2023-04-18T12:27:59.599Z,25.50
2023-04-18T12:30:31.775Z,26.39
2023-04-18T12:33:02.885Z,25.97
2023-04-18T12:35:30.782Z,26.19
2023-04-18T12:37:59.243Z,26.26
2023-04-18T12:40:26.937Z,26.13
2023-04-18T12:42:54.295Z,26.43
2023-04-18T12:45:22.111Z,26.91
2023-04-18T12:47:50.849Z,26.77
2023-04-18T12:50:19.887Z,26.49
2023-04-18T12:52:46.798Z,26.42
2023-04-18T12:55:13.657Z,26.80
2023-04-18T12:57:41.514Z,26.98
2023-04-18T13:00:11.236Z,26.96
2023-04-18T13:02:39.102Z,26.93
2023-04-18T13:05:10.754Z,26.64
2023-04-18T13:07:38.049Z,26.89
2023-04-18T13:10:05.002Z,27.09
2023-04-18T13:12:31.525Z,26.74
2023-04-18T13:14:58.113Z,27.25
2023-04-18T13:17:24.708Z,27.09
2023-04-18T13:19:51.902Z,27.13
2023-04-18T13:22:20.328Z,27.84
2023-04-18T13:24:47.462Z,27.60
2023-04-18T13:27:14.795Z,27.05
2023-04-18T13:29:42.482Z,27.08
2023-04-18T13:32:09.687Z,27.41
2023-04-18T13:34:42.726Z,27.04
2023-04-18T13:37:09.548Z,26.92
2023-04-18T13:39:36.177Z,26.84
2023-04-18T13:42:03.288Z,27.16
2023-04-18T13:44:33.674Z,27.22
2023-04-18T13:47:01.164Z,27.23
2023-04-18T13:49:27.919Z,27.13
2023-04-18T13:51:57.190Z,27.15
2023-04-18T13:54:26.560Z,27.06
2023-04-18T13:56:54.096Z,27.17
2023-04-18T13:59:20.791Z,26.80
2023-04-18T14:01:47.431Z,27.10
2023-04-18T14:04:14.176Z,26.95
2023-04-18T14:06:41.046Z,27.21
2023-04-18T14:09:07.944Z,26.89
2023-04-18T14:11:35.213Z,26.87
2023-04-18T14:14:02.319Z,26.83
2023-04-18T14:16:32.332Z,26.76
2023-04-18T14:18:59.873Z,26.85
2023-04-18T14:21:26.858Z,26.71
2023-04-18T14:23:53.840Z,27.04
2023-04-18T14:26:20.756Z,26.53
2023-04-18T14:28:47.634Z,26.53
2023-04-18T14:31:15.235Z,26.67
2023-04-18T14:33:42.405Z,26.58
2023-04-18T14:36:09.760Z,26.52
2023-04-18T14:38:36.393Z,26.61
2023-04-18T14:41:05.777Z,26.15
2023-04-18T14:43:32.400Z,26.57
2023-04-18T14:45:59.679Z,26.52
2023-04-18T14:48:27.190Z,26.67
2023-04-18T14:51:02.622Z,26.17
2023-04-18T14:53:29.681Z,26.18
2023-04-18T14:55:56.373Z,26.42
2023-04-18T14:58:22.864Z,26.44
2023-04-18T15:00:49.456Z,26.69
2023-04-18T15:03:16.705Z,26.38
2023-04-18T15:05:46.704Z,26.81
2023-04-18T15:08:14.497Z,26.48
2023-04-18T15:10:42.483Z,26.62
2023-04-18T15:13:09.899Z,26.66
2023-04-18T15:15:37.880Z,26.55
2023-04-18T15:18:05.640Z,26.80
2023-04-18T15:20:34.285Z,26.72
2023-04-18T15:23:03.389Z,26.61
2023-04-18T15:25:30.880Z,26.71
2023-04-18T15:27:58.299Z,27.13
2023-04-18T15:30:29.324Z,27.08
2023-04-18T15:32:57.234Z,26.93
2023-04-18T15:35:24.133Z,26.88
2023-04-18T15:37:51.652Z,26.72
2023-04-18T15:40:18.717Z,26.58
2023-04-18T15:42:45.692Z,26.72
2023-04-18T15:45:12.377Z,26.88
2023-04-18T15:47:39.132Z,26.46
2023-04-18T15:50:07.158Z,26.54
2023-04-18T15:52:34.035Z,26.55
2023-04-18T15:55:00.798Z,26.20
2023-04-18T15:57:29.698Z,26.52
2023-04-18T15:59:56.721Z,26.76
2023-04-18T16:02:26.390Z,26.23
2023-04-18T16:04:53.108Z,26.49
2023-04-18T16:07:19.839Z,26.42
2023-04-18T16:09:46.335Z,25.93
2023-04-18T16:12:12.921Z,25.85
2023-04-18T16:14:39.448Z,26.25
2023-04-18T16:17:06.004Z,26.04
2023-04-18T16:19:34.414Z,25.94
2023-04-18T16:22:02.279Z,25.79
2023-04-18T16:24:30.256Z,25.74
2023-04-18T16:26:56.940Z,26.03
2023-04-18T16:29:23.862Z,25.91
2023-04-18T16:31:51.673Z,25.55
2023-04-18T16:34:18.447Z,25.43
2023-04-18T16:36:44.985Z,25.66
2023-04-18T16:39:11.533Z,25.37
2023-04-18T16:41:38.080Z,25.44
2023-04-18T16:44:04.859Z,25.62
2023-04-18T16:46:32.322Z,25.10
2023-04-18T16:48:59.394Z,25.01
2023-04-18T16:51:26.471Z,25.05
2023-04-18T16:53:53.078Z,24.68
2023-04-18T16:56:19.665Z,25.14
2023-04-18T16:58:46.179Z,25.17
2023-04-18T17:01:12.797Z,25.22
2023-04-18T17:03:39.457Z,24.99
2023-04-18T17:06:06.279Z,25.12
2023-04-18T17:08:33.669Z,24.86
2023-04-18T17:11:02.019Z,25.14
2023-04-18T17:13:31.387Z,24.88
2023-04-18T17:15:58.009Z,25.07
2023-04-18T17:18:24.675Z,24.85
2023-04-18T17:20:51.388Z,24.46
2023-04-18T17:23:17.968Z,24.57
2023-04-18T17:25:45.021Z,24.78
2023-04-18T17:28:11.980Z,24.42
2023-04-18T17:30:42.437Z,24.14
2023-04-18T17:33:12.116Z,24.03
2023-04-18T17:35:44.724Z,24.03
2023-04-18T17:38:15.111Z,24.27
2023-04-18T17:40:42.096Z,24.56
2023-04-18T17:43:08.788Z,24.41
2023-04-18T17:45:35.781Z,24.61
2023-04-18T17:48:03.182Z,24.69
2023-04-18T17:50:32.619Z,24.66
2023-04-18T17:52:59.306Z,24.83
2023-04-18T17:55:27.038Z,24.83
2023-04-18T17:57:53.850Z,25.15
2023-04-18T18:00:20.482Z,25.37
2023-04-18T18:02:47.338Z,25.54
2023-04-18T18:05:14.233Z,25.65
2023-04-18T18:07:43.157Z,25.94
2023-04-18T18:10:10.809Z,25.67
2023-04-18T18:12:38.131Z,25.86
2023-04-18T18:15:05.257Z,26.22
2023-04-18T18:17:31.833Z,26.00
2023-04-18T18:19:58.499Z,26.18
2023-04-18T18:22:26.208Z,26.12
2023-04-18T18:24:53.020Z,26.27
2023-04-18T18:27:23.179Z,26.30
2023-04-18T18:29:50.611Z,26.16
2023-04-18T18:32:17.489Z,26.25
2023-04-18T18:34:44.236Z,26.23
2023-04-18T18:37:17.316Z,25.93
2023-04-18T18:39:44.100Z,26.41
2023-04-18T18:42:10.821Z,25.93
2023-04-18T18:44:37.537Z,25.85
2023-04-18T18:47:04.107Z,26.08
2023-04-18T18:49:30.776Z,26.19
2023-04-18T18:51:57.820Z,26.46
2023-04-18T18:54:25.857Z,26.48
2023-04-18T18:56:52.401Z,26.50
2023-04-18T18:59:19.201Z,26.57
2023-04-18T19:01:45.860Z,26.47
2023-04-18T19:04:12.569Z,26.67
2023-04-18T19:06:39.327Z,26.39
2023-04-18T19:09:06.067Z,26.51
2023-04-18T19:11:32.657Z,26.50
2023-04-18T19:13:59.166Z,26.41
2023-04-18T19:16:25.804Z,26.33
2023-04-18T19:18:52.394Z,26.18
2023-04-18T19:21:20.208Z,25.91
2023-04-18T19:23:46.824Z,25.57
2023-04-18T19:26:16.388Z,25.46
2023-04-18T19:28:45.008Z,25.51
2023-04-18T19:31:16.711Z,25.54
2023-04-18T19:33:45.587Z,25.52
2023-04-18T19:39:13.701Z,25.51
2023-04-18T19:41:49.642Z,25.58
2023-04-18T19:44:18.530Z,25.56
2023-04-18T19:46:45.043Z,25.32
2023-04-18T19:49:11.647Z,25.50
2023-04-18T19:51:39.167Z,25.84
2023-04-18T19:54:06.364Z,25.98
2023-04-18T19:56:39.889Z,25.51
2023-04-18T19:59:12.792Z,25.84
2023-04-18T20:01:41.366Z,25.72
2023-04-18T20:04:10.494Z,25.72
2023-04-18T20:06:37.572Z,25.72
2023-04-18T20:09:05.627Z,25.73
2023-04-18T20:11:32.370Z,26.02
2023-04-18T20:13:59.089Z,25.79
2023-04-18T20:16:26.209Z,26.12
2023-04-18T20:18:54.870Z,26.18
2023-04-18T20:21:21.690Z,26.28
2023-04-18T20:23:48.257Z,26.19
2023-04-18T20:26:14.988Z,26.79
2023-04-18T20:28:41.581Z,26.38
2023-04-18T20:31:08.224Z,26.71
2023-04-18T20:33:36.146Z,26.80
2023-04-18T20:36:03.567Z,26.87
2023-04-18T20:38:30.145Z,27.03
2023-04-18T20:40:58.810Z,26.84
2023-04-18T20:43:25.750Z,27.15
2023-04-18T20:45:53.608Z,27.15
2023-04-18T20:48:20.955Z,27.06
2023-04-18T20:50:51.404Z,27.38
2023-04-18T20:53:21.042Z,27.47
2023-04-18T20:55:48.508Z,27.42
2023-04-18T20:58:15.174Z,27.53
2023-04-18T21:00:41.805Z,27.80
2023-04-18T21:03:08.517Z,27.40
2023-04-18T21:05:35.365Z,27.70
2023-04-18T21:08:01.961Z,27.82
2023-04-18T21:10:28.573Z,27.98
2023-04-18T21:12:55.168Z,28.10
2023-04-18T21:15:21.743Z,27.99
2023-04-18T21:17:50.358Z,28.10
2023-04-18T21:20:17.390Z,28.30
2023-04-18T21:22:44.132Z,28.59
2023-04-18T21:25:10.758Z,28.51
2023-04-18T21:27:37.661Z,28.61
2023-04-18T21:30:05.179Z,28.37
2023-04-18T21:32:31.806Z,28.30
2023-04-18T21:34:58.598Z,28.41
2023-04-18T21:37:25.489Z,28.47
2023-04-18T21:39:52.207Z,28.56
2023-04-18T21:42:18.877Z,28.61
2023-04-18T21:44:45.551Z,28.65
2023-04-18T21:47:12.277Z,29.21
2023-04-18T21:49:39.182Z,29.01
2023-04-18T21:52:06.222Z,29.18
2023-04-18T21:54:33.308Z,29.16
2023-04-18T21:56:59.968Z,29.12
2023-04-18T21:59:26.784Z,29.03
2023-04-18T22:01:53.456Z,29.17
2023-04-18T22:04:22.042Z,29.22
2023-04-18T22:06:48.910Z,29.41
2023-04-18T22:09:19.076Z,29.56
2023-04-18T22:11:45.775Z,29.27
2023-04-18T22:14:14.675Z,29.52
2023-04-18T22:16:42.421Z,29.78
2023-04-18T22:19:09.173Z,29.71
2023-04-18T22:21:35.747Z,29.51
2023-04-18T22:24:02.433Z,29.95
2023-04-18T22:26:28.979Z,29.85
2023-04-18T22:28:55.514Z,29.63
2023-04-18T22:31:22.061Z,29.52
2023-04-18T22:33:48.778Z,29.43
2023-04-18T22:36:15.490Z,29.30
2023-04-18T22:38:42.170Z,29.23
2023-04-18T22:41:08.752Z,29.16
2023-04-18T22:43:35.372Z,29.15
2023-04-18T22:46:02.791Z,29.05
2023-04-18T22:48:29.976Z,29.01
2023-04-18T22:50:56.624Z,28.88
2023-04-18T22:53:23.276Z,28.54
2023-04-18T22:55:50.997Z,28.66
2023-04-18T22:58:17.777Z,28.53
2023-04-18T23:00:44.373Z,28.58
2023-04-18T23:03:11.181Z,28.40
2023-04-18T23:05:37.860Z,28.50
2023-04-18T23:08:07.041Z,28.41
2023-04-18T23:10:34.103Z,28.27
2023-04-18T23:13:00.950Z,28.24
2023-04-18T23:15:27.497Z,28.39
2023-04-18T23:17:54.481Z,28.09
2023-04-18T23:20:21.717Z,28.09
2023-04-18T23:22:51.598Z,28.12
2023-04-18T23:25:20.357Z,27.89
2023-04-18T23:27:47.991Z,27.67
2023-04-18T23:30:14.787Z,27.60
2023-04-18T23:32:41.637Z,27.50
2023-04-18T23:35:08.746Z,27.71
2023-04-18T23:37:35.418Z,27.70
2023-04-18T23:40:07.026Z,27.42
2023-04-18T23:42:37.032Z,27.56
2023-04-18T23:45:05.756Z,27.43
2023-04-18T23:47:32.653Z,27.50
2023-04-18T23:49:59.471Z,27.26
2023-04-18T23:52:26.067Z,27.12
2023-04-18T23:54:53.900Z,27.26
2023-04-18T23:57:20.792Z,27.21
2023-04-18T23:59:47.508Z,26.88
